Inwood, Canada
Current Conditions -  °F | °C
As of 10:00 AM on Thursday 30 Oct 2014 (Local Time) from CYWG Reporting Station
Overcast Overcast  
Wind Chill: 22°   Ceiling: 3600
Heat Index: 34°   Visibility: 15mi
Dew Point: 27°   Wind: 22mph
Humidity: 75%   Direction: 350°N
Pressure: 30.29"   Gusts: 30mph
Location:  50.5°N, 97.5°W
Report Text: CYWG 301500Z 35019G26KT 15SM FEW015 OVC036 01/M03 A3029 RMK SF2SC6 SLP270
Loading
Personal Weather Stations






























Interactive Weather Map
Tropical Storm Tracking
New forecast layout! Learn more

10-Day Weather Forecast

Advertisements
Track Severe Weather on mobile